sensor_id;sensor_type;location;lat;lon;timestamp;pressure;altitude;pressure_sealevel;temperature;humidity
68873;BME280;55907;50.806;12.882;2024-01-30T00:05:50;986.5;;;5.7;48.7
68873;BME280;55907;50.806;12.882;2024-01-30T00:08:51;986.6;;;5.7;48.9
68873;BME280;55907;50.806;12.882;2024-01-30T00:11:51;986.6;;;5.6;49.0
68873;BME280;55907;50.806;12.882;2024-01-30T00:17:53;986.6;;;5.6;49.1
68873;BME280;55907;50.806;12.882;2024-01-30T00:20:54;986.6;;;5.6;49.3
68873;BME280;55907;50.806;12.882;2024-01-30T00:23:54;986.7;;;5.6;49.1
68873;BME280;55907;50.806;12.882;2024-01-30T00:26:55;986.7;;;5.6;50.4
68873;BME280;55907;50.806;12.882;2024-01-30T00:29:56;986.6;;;5.5;50.3
68873;BME280;55907;50.806;12.882;2024-01-30T00:32:57;986.6;;;5.5;50.3
68873;BME280;55907;50.806;12.882;2024-01-30T00:35:58;986.6;;;5.4;51.1
68873;BME280;55907;50.806;12.882;2024-01-30T00:38:58;986.6;;;5.4;50.8
68873;BME280;55907;50.806;12.882;2024-01-30T00:41:59;986.6;;;5.4;50.7
68873;BME280;55907;50.806;12.882;2024-01-30T00:45:00;986.7;;;5.4;50.9
68873;BME280;55907;50.806;12.882;2024-01-30T00:48:01;986.6;;;5.3;51.6
68873;BME280;55907;50.806;12.882;2024-01-30T00:51:01;986.6;;;5.3;51.4
68873;BME280;55907;50.806;12.882;2024-01-30T00:54:02;986.5;;;5.2;52.0
68873;BME280;55907;50.806;12.882;2024-01-30T00:57:03;986.5;;;5.2;51.0
68873;BME280;55907;50.806;12.882;2024-01-30T01:00:05;986.5;;;5.2;50.9
68873;BME280;55907;50.806;12.882;2024-01-30T01:03:04;986.5;;;5.2;51.1
68873;BME280;55907;50.806;12.882;2024-01-30T01:06:05;986.5;;;5.2;51.5
68873;BME280;55907;50.806;12.882;2024-01-30T01:09:06;986.5;;;5.2;51.2
68873;BME280;55907;50.806;12.882;2024-01-30T01:12:07;986.5;;;5.2;51.0
68873;BME280;55907;50.806;12.882;2024-01-30T01:15:08;986.5;;;5.2;51.0
68873;BME280;55907;50.806;12.882;2024-01-30T01:18:08;986.5;;;5.2;50.8
68873;BME280;55907;50.806;12.882;2024-01-30T01:21:09;986.4;;;5.2;50.5
68873;BME280;55907;50.806;12.882;2024-01-30T01:24:10;986.5;;;5.3;50.6
68873;BME280;55907;50.806;12.882;2024-01-30T01:27:10;986.4;;;5.3;50.4
68873;BME280;55907;50.806;12.882;2024-01-30T01:30:11;986.4;;;5.3;50.8
68873;BME280;55907;50.806;12.882;2024-01-30T01:33:12;986.4;;;5.2;50.5
68873;BME280;55907;50.806;12.882;2024-01-30T01:36:13;986.4;;;5.2;51.0
68873;BME280;55907;50.806;12.882;2024-01-30T01:39:13;986.4;;;5.2;50.5
68873;BME280;55907;50.806;12.882;2024-01-30T01:42:14;986.4;;;5.3;50.3
68873;BME280;55907;50.806;12.882;2024-01-30T01:45:15;986.4;;;5.3;50.5
68873;BME280;55907;50.806;12.882;2024-01-30T01:48:16;986.3;;;5.4;50.2
68873;BME280;55907;50.806;12.882;2024-01-30T01:51:16;986.4;;;5.4;50.4
68873;BME280;55907;50.806;12.882;2024-01-30T01:54:18;986.4;;;5.4;49.8
68873;BME280;55907;50.806;12.882;2024-01-30T01:57:18;986.4;;;5.4;49.8
68873;BME280;55907;50.806;12.882;2024-01-30T02:00:19;986.4;;;5.5;49.6
68873;BME280;55907;50.806;12.882;2024-01-30T02:03:19;986.3;;;5.5;49.4
68873;BME280;55907;50.806;12.882;2024-01-30T02:06:20;986.3;;;5.5;49.3
68873;BME280;55907;50.806;12.882;2024-01-30T02:09:21;986.3;;;5.6;49.2
68873;BME280;55907;50.806;12.882;2024-01-30T02:12:22;986.3;;;5.6;49.1
68873;BME280;55907;50.806;12.882;2024-01-30T02:18:23;986.3;;;5.7;49.2
68873;BME280;55907;50.806;12.882;2024-01-30T02:21:24;986.3;;;5.7;48.9
68873;BME280;55907;50.806;12.882;2024-01-30T02:24:25;986.3;;;5.8;48.8
68873;BME280;55907;50.806;12.882;2024-01-30T02:27:25;986.3;;;5.7;48.9
68873;BME280;55907;50.806;12.882;2024-01-30T02:30:26;986.3;;;5.7;48.9
68873;BME280;55907;50.806;12.882;2024-01-30T02:33:27;986.3;;;5.8;48.8
68873;BME280;55907;50.806;12.882;2024-01-30T02:36:28;986.3;;;5.8;48.9
68873;BME280;55907;50.806;12.882;2024-01-30T02:39:28;986.3;;;5.8;49.0
68873;BME280;55907;50.806;12.882;2024-01-30T02:42:29;986.3;;;5.8;49.2
68873;BME280;55907;50.806;12.882;2024-01-30T02:45:30;986.2;;;5.9;49.3
68873;BME280;55907;50.806;12.882;2024-01-30T02:48:31;986.3;;;5.9;49.9
68873;BME280;55907;50.806;12.882;2024-01-30T02:51:32;986.3;;;5.9;49.9
68873;BME280;55907;50.806;12.882;2024-01-30T02:54:32;986.2;;;6.0;49.6
68873;BME280;55907;50.806;12.882;2024-01-30T02:57:33;986.2;;;6.1;49.9
68873;BME280;55907;50.806;12.882;2024-01-30T03:00:34;986.2;;;6.1;49.6
68873;BME280;55907;50.806;12.882;2024-01-30T03:03:35;986.2;;;6.2;49.5
68873;BME280;55907;50.806;12.882;2024-01-30T03:06:35;986.1;;;6.2;49.6
68873;BME280;55907;50.806;12.882;2024-01-30T03:09:36;986.2;;;6.1;49.9
68873;BME280;55907;50.806;12.882;2024-01-30T03:12:37;986.2;;;6.1;50.0
68873;BME280;55907;50.806;12.882;2024-01-30T03:15:38;986.2;;;6.1;50.2
68873;BME280;55907;50.806;12.882;2024-01-30T03:18:38;986.2;;;6.1;50.3
68873;BME280;55907;50.806;12.882;2024-01-30T03:21:39;986.1;;;6.1;50.0
68873;BME280;55907;50.806;12.882;2024-01-30T03:24:40;986.2;;;6.1;50.1
68873;BME280;55907;50.806;12.882;2024-01-30T03:27:41;986.1;;;6.1;50.3
68873;BME280;55907;50.806;12.882;2024-01-30T03:30:42;986.1;;;6.0;50.5
68873;BME280;55907;50.806;12.882;2024-01-30T03:33:42;986.1;;;6.0;50.7
68873;BME280;55907;50.806;12.882;2024-01-30T03:36:43;986.2;;;6.0;50.8
68873;BME280;55907;50.806;12.882;2024-01-30T03:39:44;986.1;;;6.0;51.0
68873;BME280;55907;50.806;12.882;2024-01-30T03:42:45;986.0;;;6.0;50.7
68873;BME280;55907;50.806;12.882;2024-01-30T03:45:45;986.1;;;6.1;50.7
68873;BME280;55907;50.806;12.882;2024-01-30T03:48:46;986.1;;;6.1;50.6
68873;BME280;55907;50.806;12.882;2024-01-30T04:00:49;986.0;;;6.0;51.1
68873;BME280;55907;50.806;12.882;2024-01-30T04:09:52;986.0;;;5.9;51.5
68873;BME280;55907;50.806;12.882;2024-01-30T04:12:52;986.0;;;5.9;51.7
68873;BME280;55907;50.806;12.882;2024-01-30T04:15:53;986.0;;;5.8;51.8
68873;BME280;55907;50.806;12.882;2024-01-30T04:18:54;986.0;;;5.8;51.9
68873;BME280;55907;50.806;12.882;2024-01-30T04:21:55;985.9;;;5.8;52.3
68873;BME280;55907;50.806;12.882;2024-01-30T04:24:55;985.9;;;5.7;52.1
68873;BME280;55907;50.806;12.882;2024-01-30T04:27:56;985.8;;;5.7;52.9
68873;BME280;55907;50.806;12.882;2024-01-30T04:30:57;985.9;;;5.7;52.6
68873;BME280;55907;50.806;12.882;2024-01-30T04:33:58;985.9;;;5.7;52.4
68873;BME280;55907;50.806;12.882;2024-01-30T04:36:58;985.8;;;5.7;52.4
68873;BME280;55907;50.806;12.882;2024-01-30T04:39:59;985.9;;;5.6;52.3
68873;BME280;55907;50.806;12.882;2024-01-30T04:43:00;985.9;;;5.6;52.4
68873;BME280;55907;50.806;12.882;2024-01-30T04:46:01;985.8;;;5.6;52.5
68873;BME280;55907;50.806;12.882;2024-01-30T04:49:02;985.8;;;5.6;52.5
68873;BME280;55907;50.806;12.882;2024-01-30T04:52:03;985.8;;;5.5;52.1
68873;BME280;55907;50.806;12.882;2024-01-30T04:55:04;985.8;;;5.5;52.2
68873;BME280;55907;50.806;12.882;2024-01-30T04:58:04;985.7;;;5.5;52.3
68873;BME280;55907;50.806;12.882;2024-01-30T05:04:07;985.8;;;5.6;52.1
68873;BME280;55907;50.806;12.882;2024-01-30T05:07:06;985.8;;;5.7;52.0
68873;BME280;55907;50.806;12.882;2024-01-30T05:10:08;985.8;;;5.7;52.0
68873;BME280;55907;50.806;12.882;2024-01-30T05:13:08;985.8;;;5.8;52.1
68873;BME280;55907;50.806;12.882;2024-01-30T05:16:09;985.8;;;5.7;52.2
68873;BME280;55907;50.806;12.882;2024-01-30T05:19:09;985.8;;;5.7;52.5
68873;BME280;55907;50.806;12.882;2024-01-30T05:22:10;985.8;;;5.7;52.5
68873;BME280;55907;50.806;12.882;2024-01-30T05:25:12;985.8;;;5.6;52.7
68873;BME280;55907;50.806;12.882;2024-01-30T05:28:12;985.7;;;5.6;52.7
68873;BME280;55907;50.806;12.882;2024-01-30T05:31:12;985.7;;;5.6;52.8
68873;BME280;55907;50.806;12.882;2024-01-30T05:34:13;985.7;;;5.5;53.0
68873;BME280;55907;50.806;12.882;2024-01-30T05:37:14;985.7;;;5.4;53.2
68873;BME280;55907;50.806;12.882;2024-01-30T05:40:15;985.7;;;5.4;53.9
68873;BME280;55907;50.806;12.882;2024-01-30T05:46:16;985.7;;;5.3;53.7
68873;BME280;55907;50.806;12.882;2024-01-30T05:49:17;985.7;;;5.3;53.4
68873;BME280;55907;50.806;12.882;2024-01-30T05:52:18;985.7;;;5.3;53.5
68873;BME280;55907;50.806;12.882;2024-01-30T05:55:19;985.7;;;5.3;53.2
68873;BME280;55907;50.806;12.882;2024-01-30T05:58:19;985.7;;;5.3;53.2
68873;BME280;55907;50.806;12.882;2024-01-30T06:01:20;985.7;;;5.2;53.2
68873;BME280;55907;50.806;12.882;2024-01-30T06:07:21;985.8;;;5.3;52.9
68873;BME280;55907;50.806;12.882;2024-01-30T06:10:22;985.9;;;5.3;52.8
68873;BME280;55907;50.806;12.882;2024-01-30T06:13:23;985.9;;;5.3;52.8
68873;BME280;55907;50.806;12.882;2024-01-30T06:16:24;985.9;;;5.2;53.3
68873;BME280;55907;50.806;12.882;2024-01-30T06:19:24;985.9;;;5.2;53.2
68873;BME280;55907;50.806;12.882;2024-01-30T06:22:25;985.9;;;5.2;53.3
68873;BME280;55907;50.806;12.882;2024-01-30T06:25:26;985.8;;;5.1;54.4
68873;BME280;55907;50.806;12.882;2024-01-30T06:28:27;985.8;;;5.1;54.5
68873;BME280;55907;50.806;12.882;2024-01-30T06:31:27;985.8;;;5.0;54.0
68873;BME280;55907;50.806;12.882;2024-01-30T06:34:29;985.8;;;5.0;54.3
68873;BME280;55907;50.806;12.882;2024-01-30T06:37:29;985.8;;;5.0;53.8
68873;BME280;55907;50.806;12.882;2024-01-30T06:40:30;985.8;;;5.0;53.8
68873;BME280;55907;50.806;12.882;2024-01-30T06:43:30;985.8;;;5.1;53.6
68873;BME280;55907;50.806;12.882;2024-01-30T06:46:31;985.8;;;5.1;53.6
68873;BME280;55907;50.806;12.882;2024-01-30T06:49:32;985.9;;;5.2;53.2
68873;BME280;55907;50.806;12.882;2024-01-30T06:52:33;985.9;;;5.2;53.7
68873;BME280;55907;50.806;12.882;2024-01-30T06:55:34;985.9;;;5.4;53.7
68873;BME280;55907;50.806;12.882;2024-01-30T06:58:34;985.9;;;5.5;53.3
68873;BME280;55907;50.806;12.882;2024-01-30T07:01:35;985.9;;;5.6;53.3
68873;BME280;55907;50.806;12.882;2024-01-30T07:04:36;985.9;;;5.6;53.3
68873;BME280;55907;50.806;12.882;2024-01-30T07:07:37;986.0;;;5.7;52.6
68873;BME280;55907;50.806;12.882;2024-01-30T07:10:37;985.9;;;5.7;52.3
68873;BME280;55907;50.806;12.882;2024-01-30T07:13:38;986.0;;;5.8;52.1
68873;BME280;55907;50.806;12.882;2024-01-30T07:16:39;986.0;;;5.9;51.8
68873;BME280;55907;50.806;12.882;2024-01-30T07:19:40;985.9;;;5.9;51.7
68873;BME280;55907;50.806;12.882;2024-01-30T07:22:40;985.8;;;6.2;50.9
68873;BME280;55907;50.806;12.882;2024-01-30T07:25:41;985.9;;;6.7;50.1
68873;BME280;55907;50.806;12.882;2024-01-30T07:28:42;985.9;;;7.1;48.8
68873;BME280;55907;50.806;12.882;2024-01-30T07:31:43;986.2;;;7.3;49.2
68873;BME280;55907;50.806;12.882;2024-01-30T07:34:43;986.2;;;7.1;50.2
68873;BME280;55907;50.806;12.882;2024-01-30T07:37:44;986.2;;;7.1;49.1
68873;BME280;55907;50.806;12.882;2024-01-30T07:40:45;986.2;;;7.1;49.0
68873;BME280;55907;50.806;12.882;2024-01-30T07:43:46;986.2;;;7.1;49.2
68873;BME280;55907;50.806;12.882;2024-01-30T07:46:46;986.2;;;7.2;47.8
68873;BME280;55907;50.806;12.882;2024-01-30T07:49:47;986.2;;;7.4;47.1
68873;BME280;55907;50.806;12.882;2024-01-30T07:52:48;986.3;;;7.5;48.6
68873;BME280;55907;50.806;12.882;2024-01-30T07:55:48;986.2;;;7.6;48.2
68873;BME280;55907;50.806;12.882;2024-01-30T07:58:49;986.2;;;7.7;47.0
68873;BME280;55907;50.806;12.882;2024-01-30T08:01:50;986.1;;;7.7;46.8
68873;BME280;55907;50.806;12.882;2024-01-30T08:04:51;986.2;;;8.0;45.9
68873;BME280;55907;50.806;12.882;2024-01-30T08:07:51;986.2;;;8.2;44.7
68873;BME280;55907;50.806;12.882;2024-01-30T08:10:52;986.1;;;8.2;44.6
68873;BME280;55907;50.806;12.882;2024-01-30T08:13:53;986.2;;;8.2;44.5
68873;BME280;55907;50.806;12.882;2024-01-30T08:16:54;986.1;;;8.1;44.9
68873;BME280;55907;50.806;12.882;2024-01-30T08:19:54;986.2;;;8.1;45.2
68873;BME280;55907;50.806;12.882;2024-01-30T08:22:55;986.2;;;8.2;45.1
68873;BME280;55907;50.806;12.882;2024-01-30T08:25:56;986.1;;;8.4;44.5
68873;BME280;55907;50.806;12.882;2024-01-30T08:28:57;986.1;;;8.5;43.9
68873;BME280;55907;50.806;12.882;2024-01-30T08:34:59;986.0;;;8.5;43.7
68873;BME280;55907;50.806;12.882;2024-01-30T08:37:59;986.0;;;8.6;43.3
68873;BME280;55907;50.806;12.882;2024-01-30T08:41:00;986.0;;;8.8;42.4
68873;BME280;55907;50.806;12.882;2024-01-30T08:44:00;986.0;;;9.0;41.6
68873;BME280;55907;50.806;12.882;2024-01-30T08:47:01;986.0;;;9.5;41.4
68873;BME280;55907;50.806;12.882;2024-01-30T08:50:02;986.0;;;10.1;42.3
68873;BME280;55907;50.806;12.882;2024-01-30T08:59:04;986.1;;;11.1;42.0
68873;BME280;55907;50.806;12.882;2024-01-30T09:02:05;986.1;;;11.7;40.5
68873;BME280;55907;50.806;12.882;2024-01-30T09:05:06;986.0;;;12.8;38.9
68873;BME280;55907;50.806;12.882;2024-01-30T09:08:06;986.1;;;13.9;37.7
68873;BME280;55907;50.806;12.882;2024-01-30T09:11:08;986.1;;;14.9;36.3
68873;BME280;55907;50.806;12.882;2024-01-30T09:14:08;986.1;;;15.8;34.8
68873;BME280;55907;50.806;12.882;2024-01-30T09:17:09;986.1;;;16.5;33.7
68873;BME280;55907;50.806;12.882;2024-01-30T09:20:10;986.1;;;17.3;31.8
68873;BME280;55907;50.806;12.882;2024-01-30T09:23:10;986.0;;;18.3;30.8
68873;BME280;55907;50.806;12.882;2024-01-30T09:26:11;986.0;;;18.8;28.4
68873;BME280;55907;50.806;12.882;2024-01-30T09:29:11;986.0;;;19.6;26.9
68873;BME280;55907;50.806;12.882;2024-01-30T09:35:13;986.0;;;20.5;24.8
68873;BME280;55907;50.806;12.882;2024-01-30T09:38:13;986.0;;;20.6;25.5
68873;BME280;55907;50.806;12.882;2024-01-30T09:41:15;985.9;;;20.4;25.0
68873;BME280;55907;50.806;12.882;2024-01-30T09:44:15;986.0;;;20.1;27.0
68873;BME280;55907;50.806;12.882;2024-01-30T09:47:16;986.0;;;20.1;26.7
68873;BME280;55907;50.806;12.882;2024-01-30T09:50:17;986.0;;;20.2;26.5
68873;BME280;55907;50.806;12.882;2024-01-30T09:53:17;986.0;;;19.5;26.7
68873;BME280;55907;50.806;12.882;2024-01-30T09:56:18;986.0;;;19.0;27.5
68873;BME280;55907;50.806;12.882;2024-01-30T09:59:18;986.0;;;18.9;28.2
68873;BME280;55907;50.806;12.882;2024-01-30T10:02:19;985.9;;;19.1;29.1
68873;BME280;55907;50.806;12.882;2024-01-30T10:05:21;986.0;;;19.4;27.2
68873;BME280;55907;50.806;12.882;2024-01-30T10:08:20;986.0;;;19.2;26.9
68873;BME280;55907;50.806;12.882;2024-01-30T10:14:22;985.9;;;18.6;28.7
68873;BME280;55907;50.806;12.882;2024-01-30T10:17:24;985.9;;;18.5;28.6
68873;BME280;55907;50.806;12.882;2024-01-30T10:20:24;985.9;;;18.8;28.6
68873;BME280;55907;50.806;12.882;2024-01-30T10:23:24;985.9;;;18.9;28.6
68873;BME280;55907;50.806;12.882;2024-01-30T10:26:25;985.8;;;18.6;27.7
68873;BME280;55907;50.806;12.882;2024-01-30T10:29:26;985.8;;;18.5;27.4
68873;BME280;55907;50.806;12.882;2024-01-30T10:32:26;985.7;;;18.5;26.7
68873;BME280;55907;50.806;12.882;2024-01-30T10:35:26;985.8;;;18.8;26.4
68873;BME280;55907;50.806;12.882;2024-01-30T10:38:29;985.8;;;19.1;26.1
68873;BME280;55907;50.806;12.882;2024-01-30T10:41:31;985.7;;;19.4;26.3
68873;BME280;55907;50.806;12.882;2024-01-30T10:44:29;985.7;;;19.5;25.9
68873;BME280;55907;50.806;12.882;2024-01-30T10:50:30;985.6;;;19.9;24.2
68873;BME280;55907;50.806;12.882;2024-01-30T10:53:31;985.6;;;19.2;24.8
68873;BME280;55907;50.806;12.882;2024-01-30T10:56:32;985.5;;;18.6;25.3
68873;BME280;55907;50.806;12.882;2024-01-30T10:59:32;985.5;;;18.1;26.4
68873;BME280;55907;50.806;12.882;2024-01-30T11:02:33;985.5;;;18.0;26.9
68873;BME280;55907;50.806;12.882;2024-01-30T11:05:33;985.5;;;17.6;27.9
68873;BME280;55907;50.806;12.882;2024-01-30T11:08:34;985.4;;;17.6;28.7
68873;BME280;55907;50.806;12.882;2024-01-30T11:11:47;985.4;;;17.5;30.2
68873;BME280;55907;50.806;12.882;2024-01-30T11:14:37;985.4;;;17.5;31.3
68873;BME280;55907;50.806;12.882;2024-01-30T11:17:41;985.4;;;17.2;32.6
68873;BME280;55907;50.806;12.882;2024-01-30T11:20:36;985.4;;;17.0;33.7
68873;BME280;55907;50.806;12.882;2024-01-30T11:23:38;985.3;;;16.6;34.9
68873;BME280;55907;50.806;12.882;2024-01-30T11:26:38;985.3;;;16.4;35.8
68873;BME280;55907;50.806;12.882;2024-01-30T11:32:40;985.3;;;16.1;36.9
68873;BME280;55907;50.806;12.882;2024-01-30T11:35:41;985.3;;;15.9;37.6
68873;BME280;55907;50.806;12.882;2024-01-30T11:38:40;985.3;;;15.8;38.1
68873;BME280;55907;50.806;12.882;2024-01-30T11:41:41;985.3;;;15.6;39.1
68873;BME280;55907;50.806;12.882;2024-01-30T11:44:46;985.4;;;15.7;38.9
68873;BME280;55907;50.806;12.882;2024-01-30T11:47:43;985.3;;;15.6;39.4
68873;BME280;55907;50.806;12.882;2024-01-30T11:50:43;985.3;;;15.4;40.0
68873;BME280;55907;50.806;12.882;2024-01-30T11:53:44;985.2;;;15.3;40.3
68873;BME280;55907;50.806;12.882;2024-01-30T11:56:45;985.2;;;15.3;40.8
68873;BME280;55907;50.806;12.882;2024-01-30T11:59:45;985.2;;;15.2;41.1
68873;BME280;55907;50.806;12.882;2024-01-30T12:02:49;985.2;;;15.2;41.3
68873;BME280;55907;50.806;12.882;2024-01-30T12:05:55;985.1;;;15.2;41.3
68873;BME280;55907;50.806;12.882;2024-01-30T12:08:55;985.1;;;15.1;41.6
68873;BME280;55907;50.806;12.882;2024-01-30T12:11:48;985.2;;;15.0;42.0
68873;BME280;55907;50.806;12.882;2024-01-30T12:14:49;985.1;;;15.0;42.1
68873;BME280;55907;50.806;12.882;2024-01-30T12:17:49;985.0;;;15.2;41.8
68873;BME280;55907;50.806;12.882;2024-01-30T12:23:51;985.1;;;15.6;41.2
68873;BME280;55907;50.806;12.882;2024-01-30T12:26:51;985.1;;;15.6;41.7
68873;BME280;55907;50.806;12.882;2024-01-30T12:29:55;985.1;;;15.7;41.4
68873;BME280;55907;50.806;12.882;2024-01-30T12:32:54;985.1;;;15.6;41.7
68873;BME280;55907;50.806;12.882;2024-01-30T12:35:54;985.1;;;15.5;41.7
68873;BME280;55907;50.806;12.882;2024-01-30T12:38:54;985.1;;;15.6;41.8
68873;BME280;55907;50.806;12.882;2024-01-30T12:41:55;985.0;;;15.5;42.0
68873;BME280;55907;50.806;12.882;2024-01-30T12:44:57;985.0;;;15.4;42.4
68873;BME280;55907;50.806;12.882;2024-01-30T12:47:56;985.0;;;15.4;43.0
68873;BME280;55907;50.806;12.882;2024-01-30T12:50:57;985.0;;;15.3;43.6
68873;BME280;55907;50.806;12.882;2024-01-30T12:53:58;984.9;;;15.2;43.6
68873;BME280;55907;50.806;12.882;2024-01-30T12:56:58;984.9;;;15.3;43.5
68873;BME280;55907;50.806;12.882;2024-01-30T12:59:59;985.0;;;15.2;43.6
68873;BME280;55907;50.806;12.882;2024-01-30T13:03:00;984.9;;;15.1;43.7
68873;BME280;55907;50.806;12.882;2024-01-30T13:06:01;985.0;;;15.0;43.7
68873;BME280;55907;50.806;12.882;2024-01-30T13:09:01;985.0;;;14.9;43.7
68873;BME280;55907;50.806;12.882;2024-01-30T13:12:02;984.9;;;14.6;44.3
68873;BME280;55907;50.806;12.882;2024-01-30T13:15:04;984.9;;;14.6;44.4
68873;BME280;55907;50.806;12.882;2024-01-30T13:18:04;984.9;;;14.6;44.4
68873;BME280;55907;50.806;12.882;2024-01-30T13:21:04;984.9;;;14.6;44.4
68873;BME280;55907;50.806;12.882;2024-01-30T13:24:05;984.8;;;14.3;44.9
68873;BME280;55907;50.806;12.882;2024-01-30T13:27:06;984.8;;;14.2;45.2
68873;BME280;55907;50.806;12.882;2024-01-30T13:30:08;984.8;;;14.2;45.2
68873;BME280;55907;50.806;12.882;2024-01-30T13:33:07;984.8;;;14.2;45.2
68873;BME280;55907;50.806;12.882;2024-01-30T13:36:08;984.8;;;14.3;45.4
68873;BME280;55907;50.806;12.882;2024-01-30T13:45:10;984.7;;;14.3;45.1
68873;BME280;55907;50.806;12.882;2024-01-30T13:48:10;984.7;;;14.2;45.6
68873;BME280;55907;50.806;12.882;2024-01-30T13:51:11;984.7;;;14.1;45.7
68873;BME280;55907;50.806;12.882;2024-01-30T13:54:12;984.7;;;14.0;45.9
68873;BME280;55907;50.806;12.882;2024-01-30T13:57:13;984.7;;;14.0;46.2
68873;BME280;55907;50.806;12.882;2024-01-30T14:00:13;984.7;;;13.9;46.4
68873;BME280;55907;50.806;12.882;2024-01-30T14:03:14;984.7;;;13.8;46.6
68873;BME280;55907;50.806;12.882;2024-01-30T14:06:14;984.7;;;13.9;46.7
68873;BME280;55907;50.806;12.882;2024-01-30T14:09:15;984.7;;;13.9;46.8
68873;BME280;55907;50.806;12.882;2024-01-30T14:12:16;984.7;;;13.9;47.0
68873;BME280;55907;50.806;12.882;2024-01-30T14:15:17;984.7;;;13.9;47.1
68873;BME280;55907;50.806;12.882;2024-01-30T14:18:17;984.7;;;13.8;47.3
68873;BME280;55907;50.806;12.882;2024-01-30T14:21:18;984.7;;;13.8;47.5
68873;BME280;55907;50.806;12.882;2024-01-30T14:24:19;984.7;;;13.7;47.8
68873;BME280;55907;50.806;12.882;2024-01-30T14:27:20;984.7;;;13.7;47.9
68873;BME280;55907;50.806;12.882;2024-01-30T14:30:21;984.7;;;13.6;48.2
68873;BME280;55907;50.806;12.882;2024-01-30T14:33:21;984.7;;;13.6;48.7
68873;BME280;55907;50.806;12.882;2024-01-30T14:36:22;984.7;;;13.5;49.1
68873;BME280;55907;50.806;12.882;2024-01-30T14:39:22;984.7;;;13.4;49.1
68873;BME280;55907;50.806;12.882;2024-01-30T14:42:23;984.7;;;13.5;49.1
68873;BME280;55907;50.806;12.882;2024-01-30T14:45:24;984.7;;;13.4;49.2
68873;BME280;55907;50.806;12.882;2024-01-30T14:48:24;984.7;;;13.4;49.1
68873;BME280;55907;50.806;12.882;2024-01-30T14:51:25;984.7;;;13.4;49.1
68873;BME280;55907;50.806;12.882;2024-01-30T14:54:26;984.7;;;13.3;49.3
68873;BME280;55907;50.806;12.882;2024-01-30T14:57:27;984.8;;;13.3;49.5
68873;BME280;55907;50.806;12.882;2024-01-30T15:00:27;984.8;;;13.3;49.3
68873;BME280;55907;50.806;12.882;2024-01-30T15:03:28;984.8;;;13.2;49.6
68873;BME280;55907;50.806;12.882;2024-01-30T15:06:29;984.8;;;13.2;49.8
68873;BME280;55907;50.806;12.882;2024-01-30T15:09:29;984.7;;;13.1;49.8
68873;BME280;55907;50.806;12.882;2024-01-30T15:12:30;984.7;;;12.9;50.4
68873;BME280;55907;50.806;12.882;2024-01-30T15:15:31;984.7;;;12.9;50.8
68873;BME280;55907;50.806;12.882;2024-01-30T15:18:31;984.7;;;12.8;50.5
68873;BME280;55907;50.806;12.882;2024-01-30T15:21:32;984.7;;;12.7;51.2
68873;BME280;55907;50.806;12.882;2024-01-30T15:24:33;984.6;;;12.7;52.7
68873;BME280;55907;50.806;12.882;2024-01-30T15:27:34;984.6;;;12.6;52.7
68873;BME280;55907;50.806;12.882;2024-01-30T15:30:35;984.6;;;12.5;51.8
68873;BME280;55907;50.806;12.882;2024-01-30T15:33:35;984.7;;;12.4;52.7
68873;BME280;55907;50.806;12.882;2024-01-30T15:36:36;984.7;;;12.3;52.2
68873;BME280;55907;50.806;12.882;2024-01-30T15:39:36;984.7;;;12.3;52.8
68873;BME280;55907;50.806;12.882;2024-01-30T15:42:37;984.8;;;12.2;52.9
68873;BME280;55907;50.806;12.882;2024-01-30T15:45:38;984.8;;;12.2;52.8
68873;BME280;55907;50.806;12.882;2024-01-30T15:48:39;984.8;;;12.1;53.1
68873;BME280;55907;50.806;12.882;2024-01-30T15:51:39;984.8;;;12.0;53.5
68873;BME280;55907;50.806;12.882;2024-01-30T15:54:40;984.9;;;11.9;53.5
68873;BME280;55907;50.806;12.882;2024-01-30T15:57:41;984.8;;;11.8;54.6
68873;BME280;55907;50.806;12.882;2024-01-30T16:00:41;984.8;;;11.8;54.2
68873;BME280;55907;50.806;12.882;2024-01-30T16:06:43;984.8;;;11.6;54.3
68873;BME280;55907;50.806;12.882;2024-01-30T16:09:44;984.8;;;11.6;54.6
68873;BME280;55907;50.806;12.882;2024-01-30T16:12:44;984.9;;;11.5;55.1
68873;BME280;55907;50.806;12.882;2024-01-30T16:15:45;984.8;;;11.4;55.4
68873;BME280;55907;50.806;12.882;2024-01-30T16:18:46;984.9;;;11.4;55.4
68873;BME280;55907;50.806;12.882;2024-01-30T16:21:46;984.9;;;11.3;55.7
68873;BME280;55907;50.806;12.882;2024-01-30T16:24:47;984.9;;;11.3;55.7
68873;BME280;55907;50.806;12.882;2024-01-30T16:27:48;984.9;;;11.4;55.6
68873;BME280;55907;50.806;12.882;2024-01-30T16:30:49;984.9;;;11.3;55.7
68873;BME280;55907;50.806;12.882;2024-01-30T16:33:49;984.9;;;11.1;55.7
68873;BME280;55907;50.806;12.882;2024-01-30T16:36:50;984.9;;;11.1;56.1
68873;BME280;55907;50.806;12.882;2024-01-30T16:39:51;985.0;;;11.1;55.6
68873;BME280;55907;50.806;12.882;2024-01-30T16:42:51;985.0;;;11.0;56.5
68873;BME280;55907;50.806;12.882;2024-01-30T16:45:52;985.0;;;10.9;56.5
68873;BME280;55907;50.806;12.882;2024-01-30T16:48:53;985.0;;;10.9;56.6
68873;BME280;55907;50.806;12.882;2024-01-30T16:51:54;985.0;;;11.0;56.3
68873;BME280;55907;50.806;12.882;2024-01-30T16:57:55;985.0;;;10.9;57.0
68873;BME280;55907;50.806;12.882;2024-01-30T17:03:57;985.0;;;10.8;57.6
68873;BME280;55907;50.806;12.882;2024-01-30T17:06:57;985.0;;;10.7;57.5
68873;BME280;55907;50.806;12.882;2024-01-30T17:09:58;985.0;;;10.8;57.7
68873;BME280;55907;50.806;12.882;2024-01-30T17:12:59;985.0;;;10.7;57.9
68873;BME280;55907;50.806;12.882;2024-01-30T17:16:00;985.0;;;10.8;57.8
68873;BME280;55907;50.806;12.882;2024-01-30T17:19:00;985.1;;;10.8;57.5
68873;BME280;55907;50.806;12.882;2024-01-30T17:22:01;985.1;;;10.8;57.1
68873;BME280;55907;50.806;12.882;2024-01-30T17:25:02;985.1;;;10.7;57.6
68873;BME280;55907;50.806;12.882;2024-01-30T17:31:03;985.1;;;10.6;57.8
68873;BME280;55907;50.806;12.882;2024-01-30T17:34:04;985.1;;;10.6;57.6
68873;BME280;55907;50.806;12.882;2024-01-30T17:37:05;985.2;;;10.6;57.8
68873;BME280;55907;50.806;12.882;2024-01-30T17:40:06;985.2;;;10.6;57.6
68873;BME280;55907;50.806;12.882;2024-01-30T17:43:06;985.2;;;10.7;57.5
68873;BME280;55907;50.806;12.882;2024-01-30T17:46:07;985.3;;;10.7;57.6
68873;BME280;55907;50.806;12.882;2024-01-30T17:49:08;985.3;;;10.7;57.5
68873;BME280;55907;50.806;12.882;2024-01-30T17:52:08;985.3;;;10.6;57.9
68873;BME280;55907;50.806;12.882;2024-01-30T17:58:10;985.4;;;10.5;58.3
68873;BME280;55907;50.806;12.882;2024-01-30T18:01:11;985.4;;;10.5;58.3
68873;BME280;55907;50.806;12.882;2024-01-30T18:04:11;985.5;;;10.6;58.2
68873;BME280;55907;50.806;12.882;2024-01-30T18:07:12;985.5;;;10.6;58.1
68873;BME280;55907;50.806;12.882;2024-01-30T18:10:13;985.5;;;10.6;58.0
68873;BME280;55907;50.806;12.882;2024-01-30T18:13:13;985.5;;;10.6;58.1
68873;BME280;55907;50.806;12.882;2024-01-30T18:16:14;985.5;;;10.5;58.6